createdAt,value
2023-05-07T00:02:14.383Z,12.23
2023-05-07T00:04:47.186Z,12.25
2023-05-07T00:07:19.564Z,12.26
2023-05-07T00:09:51.849Z,12.24
2023-05-07T00:12:23.966Z,12.24
2023-05-07T00:14:56.239Z,12.24
2023-05-07T00:17:29.139Z,12.26
2023-05-07T00:20:02.109Z,12.16
2023-05-07T00:22:35.016Z,12.18
2023-05-07T00:25:08.270Z,12.18
2023-05-07T00:27:40.921Z,12.18
2023-05-07T00:30:17.364Z,12.16
2023-05-07T00:32:50.442Z,12.16
2023-05-07T00:35:23.108Z,12.17
2023-05-07T00:37:56.153Z,12.17
2023-05-07T00:40:29.051Z,12.19
2023-05-07T00:43:02.743Z,12.19
2023-05-07T00:45:35.472Z,12.18
2023-05-07T00:48:08.394Z,12.18
2023-05-07T00:50:40.897Z,12.15
2023-05-07T00:53:14.936Z,12.13
2023-05-07T00:55:47.530Z,12.12
2023-05-07T00:58:21.853Z,12.11
2023-05-07T01:00:54.103Z,12.02
2023-05-07T01:03:27.099Z,12.13
2023-05-07T01:06:03.924Z,12.10
2023-05-07T01:08:37.287Z,12.05
2023-05-07T01:11:11.048Z,12.06
2023-05-07T01:13:44.791Z,12.12
2023-05-07T01:16:19.805Z,12.11
2023-05-07T01:18:52.291Z,12.12
2023-05-07T01:21:29.026Z,12.10
2023-05-07T01:24:03.803Z,12.07
2023-05-07T01:26:37.211Z,12.08
2023-05-07T01:29:09.760Z,12.06
2023-05-07T01:31:43.910Z,12.00
2023-05-07T01:34:19.837Z,12.01
2023-05-07T01:36:52.743Z,11.98
2023-05-07T01:39:26.734Z,11.95
2023-05-07T01:42:01.679Z,11.91
2023-05-07T01:44:35.073Z,11.93
2023-05-07T01:47:08.365Z,11.93
2023-05-07T01:49:41.426Z,11.94
2023-05-07T01:52:15.587Z,11.96
2023-05-07T01:54:48.446Z,11.96
2023-05-07T01:57:20.957Z,11.89
2023-05-07T01:59:53.152Z,11.97
2023-05-07T02:02:25.395Z,11.96
2023-05-07T02:04:59.326Z,11.90
2023-05-07T02:07:32.355Z,11.89
2023-05-07T02:10:06.219Z,11.81
2023-05-07T02:12:38.869Z,11.72
2023-05-07T02:15:12.974Z,11.78
2023-05-07T02:18:03.483Z,11.79
2023-05-07T02:20:37.301Z,11.76
2023-05-07T02:23:09.445Z,11.72
2023-05-07T02:25:42.367Z,11.68
2023-05-07T02:28:15.202Z,11.68
2023-05-07T02:31:19.938Z,11.68
2023-05-07T02:33:53.129Z,11.63
2023-05-07T02:36:25.842Z,11.62
2023-05-07T02:39:03.805Z,11.64
2023-05-07T02:41:36.101Z,11.64
2023-05-07T02:44:08.401Z,11.65
2023-05-07T02:46:41.156Z,11.69
2023-05-07T02:49:16.235Z,11.65
2023-05-07T02:51:49.153Z,11.49
2023-05-07T02:54:25.493Z,11.65
2023-05-07T02:56:58.629Z,11.65
2023-05-07T02:59:36.708Z,11.64
2023-05-07T03:02:08.955Z,11.67
2023-05-07T03:04:42.249Z,11.64
2023-05-07T03:07:16.688Z,11.67
2023-05-07T03:09:49.371Z,11.66
2023-05-07T03:12:21.909Z,11.65
2023-05-07T03:14:54.346Z,11.65
2023-05-07T03:17:27.032Z,11.59
2023-05-07T03:19:59.411Z,11.62
2023-05-07T03:22:31.797Z,11.60
2023-05-07T03:25:04.119Z,11.53
2023-05-07T03:27:36.367Z,11.59
2023-05-07T03:30:11.355Z,11.62
2023-05-07T03:32:42.247Z,11.64
2023-05-07T03:35:15.940Z,11.67
2023-05-07T03:37:48.518Z,11.65
2023-05-07T03:40:21.606Z,11.65
2023-05-07T03:42:56.763Z,11.59
2023-05-07T03:45:30.806Z,11.62
2023-05-07T03:48:11.060Z,11.62
2023-05-07T03:50:43.979Z,11.69
2023-05-07T03:53:16.446Z,11.71
2023-05-07T03:55:48.806Z,11.73
2023-05-07T03:58:21.294Z,11.76
2023-05-07T04:00:53.926Z,11.77
2023-05-07T04:03:29.487Z,11.70
2023-05-07T04:06:03.388Z,11.79
2023-05-07T04:08:35.918Z,11.77
2023-05-07T04:11:09.310Z,11.78
2023-05-07T04:13:42.194Z,11.83
2023-05-07T04:16:15.195Z,11.85
2023-05-07T04:18:47.462Z,11.88
2023-05-07T04:21:20.659Z,11.90
2023-05-07T04:23:53.442Z,11.92
2023-05-07T04:26:25.653Z,11.95
2023-05-07T04:28:58.785Z,11.98
2023-05-07T04:31:32.891Z,11.98
2023-05-07T04:34:05.108Z,12.04
2023-05-07T04:36:37.687Z,12.04
2023-05-07T04:39:11.839Z,12.07
2023-05-07T04:41:45.334Z,12.07
2023-05-07T04:44:17.832Z,12.06
2023-05-07T04:46:51.386Z,12.13
2023-05-07T04:49:23.917Z,12.11
2023-05-07T04:51:56.809Z,12.13
2023-05-07T04:54:29.487Z,12.18
2023-05-07T04:57:02.370Z,12.14
2023-05-07T04:59:34.750Z,12.13
2023-05-07T05:02:06.890Z,12.18
2023-05-07T05:04:39.736Z,12.19
2023-05-07T05:07:12.835Z,12.09
2023-05-07T05:09:46.106Z,12.05
2023-05-07T05:12:19.099Z,12.00
2023-05-07T05:14:51.499Z,12.06
2023-05-07T05:17:24.005Z,11.99
2023-05-07T05:19:56.307Z,12.07
2023-05-07T05:22:30.905Z,12.14
2023-05-07T05:25:03.939Z,12.01
2023-05-07T05:27:36.319Z,12.14
2023-05-07T05:30:10.455Z,12.17
2023-05-07T05:32:43.056Z,12.22
2023-05-07T05:35:16.013Z,12.20
2023-05-07T05:37:49.249Z,12.09
2023-05-07T05:40:22.578Z,12.10
2023-05-07T05:42:55.871Z,12.20
2023-05-07T05:45:28.529Z,12.23
2023-05-07T05:48:01.683Z,12.15
2023-05-07T05:50:36.766Z,12.16
2023-05-07T05:53:09.594Z,12.13
2023-05-07T05:55:41.868Z,12.08
2023-05-07T05:58:14.224Z,12.13
2023-05-07T06:00:53.209Z,12.31
2023-05-07T06:03:26.591Z,12.32
2023-05-07T06:05:59.153Z,12.09
2023-05-07T06:08:33.791Z,12.11
2023-05-07T06:11:06.706Z,12.31
2023-05-07T06:13:40.727Z,12.43
2023-05-07T06:16:13.129Z,12.50
2023-05-07T06:18:46.477Z,12.39
2023-05-07T06:21:19.101Z,12.43
2023-05-07T06:23:53.304Z,12.51
2023-05-07T06:26:26.413Z,12.39
2023-05-07T06:28:58.664Z,12.31
2023-05-07T06:31:34.264Z,12.63
2023-05-07T06:34:09.730Z,12.65
2023-05-07T06:36:43.695Z,12.62
2023-05-07T06:39:26.299Z,12.50
2023-05-07T06:41:58.618Z,12.55
2023-05-07T06:44:33.662Z,12.73
2023-05-07T06:47:17.567Z,12.90
2023-05-07T06:49:52.195Z,13.04
2023-05-07T06:52:26.012Z,13.00
2023-05-07T06:54:58.529Z,12.88
2023-05-07T06:57:31.149Z,12.93
2023-05-07T07:00:03.552Z,13.03
2023-05-07T07:02:36.691Z,13.11
2023-05-07T07:05:11.216Z,12.83
2023-05-07T07:07:42.400Z,12.93
2023-05-07T07:10:16.802Z,13.04
2023-05-07T07:12:49.433Z,13.22
2023-05-07T07:15:22.877Z,13.28
2023-05-07T07:17:55.563Z,13.41
2023-05-07T07:20:28.322Z,13.50
2023-05-07T07:23:02.060Z,13.69
2023-05-07T07:25:34.660Z,13.81
2023-05-07T07:28:07.352Z,13.84
2023-05-07T07:30:39.909Z,13.85
2023-05-07T07:33:12.580Z,13.82
2023-05-07T07:35:45.061Z,13.75
2023-05-07T07:38:17.164Z,13.88
2023-05-07T07:40:51.323Z,13.99
2023-05-07T07:43:24.572Z,14.10
2023-05-07T07:45:57.609Z,14.01
2023-05-07T07:48:30.344Z,13.89
2023-05-07T07:51:04.297Z,13.96
2023-05-07T07:53:36.937Z,14.06
2023-05-07T07:56:09.884Z,13.99
2023-05-07T07:58:42.204Z,14.12
2023-05-07T08:01:14.584Z,13.88
2023-05-07T08:03:47.427Z,14.06
2023-05-07T08:06:20.037Z,14.13
2023-05-07T08:08:52.316Z,14.18
2023-05-07T08:11:25.108Z,14.28
2023-05-07T08:13:58.376Z,14.26
2023-05-07T08:16:31.252Z,14.14
2023-05-07T08:19:04.324Z,14.10
2023-05-07T08:21:36.828Z,14.22
2023-05-07T08:24:09.870Z,14.33
2023-05-07T08:26:42.268Z,14.38
2023-05-07T08:29:16.263Z,14.49
2023-05-07T08:31:48.860Z,14.47
2023-05-07T08:34:21.296Z,14.48
2023-05-07T08:36:54.150Z,14.52
2023-05-07T08:39:27.824Z,14.47
2023-05-07T08:42:03.267Z,14.52
2023-05-07T08:44:37.902Z,14.51
2023-05-07T08:47:11.242Z,14.55
2023-05-07T08:49:44.343Z,14.50
2023-05-07T08:52:16.792Z,14.53
2023-05-07T08:54:49.579Z,14.62
2023-05-07T08:57:22.936Z,14.76
2023-05-07T08:59:55.900Z,14.73
2023-05-07T09:02:28.794Z,14.72
2023-05-07T09:05:01.515Z,14.77
2023-05-07T09:07:34.555Z,14.82
2023-05-07T09:10:09.787Z,14.82
2023-05-07T09:12:41.001Z,14.85
2023-05-07T09:15:14.805Z,14.89
2023-05-07T09:17:48.434Z,14.88
2023-05-07T09:20:21.146Z,14.82
2023-05-07T09:22:53.807Z,14.95
2023-05-07T09:25:34.019Z,15.07
2023-05-07T09:28:11.588Z,15.16
2023-05-07T09:30:43.793Z,15.30
2023-05-07T09:33:17.389Z,15.26
2023-05-07T09:35:54.850Z,15.31
2023-05-07T09:38:29.580Z,15.37
2023-05-07T09:41:08.353Z,15.39
2023-05-07T09:43:45.420Z,15.47
2023-05-07T09:46:21.547Z,15.55
2023-05-07T09:48:59.072Z,15.48
2023-05-07T09:51:36.266Z,15.54
2023-05-07T09:54:11.208Z,15.50
2023-05-07T09:56:43.664Z,15.62
2023-05-07T09:59:17.853Z,15.57
2023-05-07T10:01:51.509Z,15.53
2023-05-07T10:04:23.894Z,15.58
2023-05-07T10:06:58.053Z,15.52
2023-05-07T10:09:31.303Z,15.51
2023-05-07T10:12:04.108Z,15.54
2023-05-07T10:14:37.761Z,15.52
2023-05-07T10:17:10.933Z,15.56
2023-05-07T10:19:44.626Z,15.61
2023-05-07T10:22:18.821Z,15.71
2023-05-07T10:24:55.484Z,15.74
2023-05-07T10:27:28.365Z,15.63
2023-05-07T10:30:09.716Z,15.71
2023-05-07T10:32:46.972Z,15.69
2023-05-07T10:35:25.594Z,15.78
2023-05-07T10:37:58.308Z,15.80
2023-05-07T10:40:32.602Z,15.80
2023-05-07T10:43:09.344Z,15.90
2023-05-07T10:46:14.111Z,15.99
2023-05-07T10:49:12.847Z,16.12
2023-05-07T10:52:27.116Z,16.13
2023-05-07T10:55:27.060Z,16.16
2023-05-07T10:58:32.525Z,16.16
2023-05-07T11:01:55.565Z,16.18
2023-05-07T11:04:42.902Z,16.09
2023-05-07T11:07:30.195Z,16.04
2023-05-07T11:10:10.658Z,15.92
2023-05-07T11:13:04.079Z,16.02
2023-05-07T11:15:47.540Z,16.05
2023-05-07T11:18:48.244Z,16.16
2023-05-07T11:21:41.048Z,16.24
2023-05-07T11:24:23.866Z,16.29
2023-05-07T11:27:03.054Z,16.30
2023-05-07T11:29:36.187Z,16.31
2023-05-07T11:32:14.738Z,16.19
2023-05-07T11:34:55.839Z,16.28
2023-05-07T11:37:30.807Z,16.34
2023-05-07T11:40:15.147Z,16.35
2023-05-07T11:42:47.604Z,16.31
2023-05-07T11:45:27.345Z,16.40
2023-05-07T11:47:59.791Z,16.45
2023-05-07T11:50:32.570Z,16.40
2023-05-07T11:53:13.994Z,16.49
2023-05-07T11:55:47.948Z,16.53
2023-05-07T11:58:25.507Z,16.45
2023-05-07T12:00:57.890Z,16.50
2023-05-07T12:03:32.111Z,16.66
2023-05-07T12:06:09.860Z,16.65
2023-05-07T12:08:45.824Z,16.91
2023-05-07T12:11:24.600Z,17.40
2023-05-07T12:13:59.652Z,17.67
2023-05-07T12:16:33.061Z,17.61
2023-05-07T12:19:05.643Z,17.48
2023-05-07T12:21:38.302Z,17.40
2023-05-07T12:24:11.793Z,17.44
2023-05-07T12:26:45.694Z,17.56
2023-05-07T12:29:18.316Z,17.36
2023-05-07T12:31:51.543Z,17.34
2023-05-07T12:34:24.729Z,17.28
2023-05-07T12:36:57.064Z,17.26
2023-05-07T12:39:29.346Z,17.34
2023-05-07T12:42:02.343Z,17.49
2023-05-07T12:44:35.528Z,17.28
2023-05-07T12:47:07.649Z,17.26
2023-05-07T12:49:41.122Z,17.37
2023-05-07T12:52:14.981Z,17.43
2023-05-07T12:54:48.225Z,17.65
2023-05-07T12:57:22.941Z,17.57
2023-05-07T13:00:01.767Z,17.54
2023-05-07T13:02:39.879Z,17.52
2023-05-07T13:05:13.265Z,17.48
2023-05-07T13:07:56.610Z,17.51
2023-05-07T13:10:29.705Z,17.59
2023-05-07T13:13:01.810Z,17.76
2023-05-07T13:15:34.236Z,17.78
2023-05-07T13:18:07.443Z,17.76
2023-05-07T13:20:39.656Z,18.00
2023-05-07T13:23:12.084Z,18.19
2023-05-07T13:25:44.749Z,18.37
2023-05-07T13:28:17.211Z,18.48
2023-05-07T13:30:50.002Z,18.62
2023-05-07T13:33:22.425Z,18.86
2023-05-07T13:35:55.000Z,19.12
2023-05-07T13:38:27.358Z,19.36
2023-05-07T13:40:59.658Z,19.45
2023-05-07T13:43:33.002Z,19.72
2023-05-07T13:46:05.314Z,20.03
2023-05-07T13:48:37.780Z,19.99
2023-05-07T13:51:10.343Z,19.73
2023-05-07T13:53:42.969Z,19.69
2023-05-07T13:56:15.486Z,19.92
2023-05-07T13:58:59.473Z,20.06
2023-05-07T14:01:31.586Z,20.04
2023-05-07T14:04:04.086Z,19.95
2023-05-07T14:06:36.384Z,19.98
2023-05-07T14:09:09.216Z,19.96
2023-05-07T14:11:41.676Z,20.04
2023-05-07T14:14:14.323Z,20.39
2023-05-07T14:16:48.527Z,20.38
2023-05-07T14:19:23.762Z,20.40
2023-05-07T14:21:58.762Z,19.95
2023-05-07T14:24:38.364Z,19.78
2023-05-07T14:27:11.633Z,19.59
2023-05-07T14:29:44.402Z,19.47
2023-05-07T14:32:16.862Z,19.35
2023-05-07T14:34:49.438Z,19.24
2023-05-07T14:37:22.114Z,19.07
2023-05-07T14:39:54.251Z,18.94
2023-05-07T14:42:26.684Z,18.71
2023-05-07T14:44:58.924Z,18.58
2023-05-07T14:47:31.474Z,18.44
2023-05-07T14:50:04.242Z,18.21
2023-05-07T14:52:36.663Z,18.25
2023-05-07T14:55:10.464Z,18.37
2023-05-07T14:57:42.997Z,18.34
2023-05-07T15:00:16.850Z,18.32
2023-05-07T15:02:49.355Z,18.35
2023-05-07T15:05:22.102Z,18.27
2023-05-07T15:07:57.509Z,18.21
2023-05-07T15:10:30.272Z,18.14
2023-05-07T15:13:02.656Z,18.07
2023-05-07T15:15:35.201Z,17.99
2023-05-07T15:18:08.494Z,17.99
2023-05-07T15:20:41.682Z,18.18
2023-05-07T15:23:15.091Z,18.29
2023-05-07T15:25:52.165Z,18.26
2023-05-07T15:28:25.628Z,18.16
2023-05-07T15:30:59.458Z,18.11
2023-05-07T15:33:31.804Z,18.04
2023-05-07T15:36:04.334Z,18.04
2023-05-07T15:38:36.747Z,18.00
2023-05-07T15:41:10.276Z,17.90
2023-05-07T15:43:49.554Z,17.91
2023-05-07T15:46:24.655Z,18.05
2023-05-07T15:48:57.743Z,18.12
2023-05-07T15:51:32.147Z,17.98
2023-05-07T15:54:04.415Z,17.86
2023-05-07T15:56:36.694Z,17.84
2023-05-07T15:59:10.167Z,17.88
2023-05-07T16:01:43.096Z,17.83
2023-05-07T16:04:15.749Z,18.05
2023-05-07T16:06:48.288Z,18.18
2023-05-07T16:09:21.084Z,18.19
2023-05-07T16:11:53.642Z,18.09
2023-05-07T16:14:26.033Z,18.06
2023-05-07T16:16:58.987Z,17.96
2023-05-07T16:19:31.371Z,17.96
2023-05-07T16:22:03.915Z,18.10
2023-05-07T16:24:36.370Z,18.18
2023-05-07T16:27:08.813Z,18.36
2023-05-07T16:29:41.487Z,18.46
2023-05-07T16:32:14.455Z,18.44
2023-05-07T16:34:47.034Z,18.51
2023-05-07T16:37:19.389Z,18.55
2023-05-07T16:39:51.561Z,18.49
2023-05-07T16:42:24.099Z,18.37
2023-05-07T16:44:56.372Z,18.22
2023-05-07T16:47:29.284Z,18.27
2023-05-07T16:50:01.713Z,18.34
2023-05-07T16:52:34.427Z,18.31
2023-05-07T16:55:07.545Z,18.41
2023-05-07T16:57:39.778Z,18.54
2023-05-07T17:00:14.249Z,18.60
2023-05-07T17:02:45.886Z,18.69
2023-05-07T17:05:19.837Z,18.45
2023-05-07T17:07:53.009Z,18.38
2023-05-07T17:10:25.763Z,18.22
2023-05-07T17:12:58.270Z,18.11
2023-05-07T17:15:30.750Z,18.12
2023-05-07T17:18:02.980Z,18.11
2023-05-07T17:20:35.932Z,18.08
2023-05-07T17:23:08.607Z,17.90
2023-05-07T17:25:45.462Z,18.11
2023-05-07T17:28:18.284Z,18.17
2023-05-07T17:30:50.920Z,18.27
2023-05-07T17:33:23.896Z,18.21
2023-05-07T17:35:57.024Z,18.20
2023-05-07T17:38:29.451Z,18.29
2023-05-07T17:41:02.264Z,18.37
2023-05-07T17:43:34.594Z,18.45
2023-05-07T17:46:07.020Z,18.51
2023-05-07T17:48:39.763Z,18.63
2023-05-07T17:51:12.113Z,18.77
2023-05-07T17:53:44.359Z,18.89
2023-05-07T17:56:16.847Z,19.02
2023-05-07T17:58:58.531Z,19.15
2023-05-07T18:01:33.692Z,19.08
2023-05-07T18:04:06.784Z,18.84
2023-05-07T18:06:39.049Z,18.64
2023-05-07T18:09:11.559Z,18.41
2023-05-07T18:11:44.250Z,18.21
2023-05-07T18:14:16.757Z,17.99
2023-05-07T18:16:48.979Z,17.77
2023-05-07T18:19:21.539Z,17.55
2023-05-07T18:21:55.417Z,17.36
2023-05-07T18:24:27.942Z,17.16
2023-05-07T18:27:00.266Z,16.94
2023-05-07T18:29:32.578Z,16.76
2023-05-07T18:32:05.117Z,16.58
2023-05-07T18:34:38.057Z,16.40
2023-05-07T18:37:10.374Z,16.25
2023-05-07T18:39:43.500Z,16.11
2023-05-07T18:42:16.131Z,15.97
2023-05-07T18:44:48.694Z,15.85
2023-05-07T18:47:21.106Z,15.72
2023-05-07T18:49:53.650Z,15.60
2023-05-07T18:52:26.231Z,15.50
2023-05-07T18:54:58.809Z,15.39
2023-05-07T18:57:31.180Z,15.29
2023-05-07T19:00:06.837Z,15.18
2023-05-07T19:02:40.131Z,15.06
2023-05-07T19:05:13.254Z,14.98
2023-05-07T19:07:45.823Z,14.89
2023-05-07T19:10:18.449Z,14.77
2023-05-07T19:12:55.381Z,14.67
2023-05-07T19:15:27.901Z,14.57
2023-05-07T19:18:00.381Z,14.50
2023-05-07T19:20:32.859Z,14.41
2023-05-07T19:23:07.011Z,14.32
2023-05-07T19:25:39.499Z,14.25
2023-05-07T19:28:11.960Z,14.18
2023-05-07T19:30:44.287Z,14.10
2023-05-07T19:33:16.952Z,14.01
2023-05-07T19:35:49.973Z,13.94
2023-05-07T19:38:22.264Z,13.91
2023-05-07T19:40:54.746Z,13.92
2023-05-07T19:43:27.121Z,13.90
2023-05-07T19:45:59.659Z,13.87
2023-05-07T19:48:32.283Z,13.79
2023-05-07T19:51:04.640Z,13.77
2023-05-07T19:53:37.350Z,13.84
2023-05-07T19:56:11.435Z,13.82
2023-05-07T19:58:43.662Z,13.78
2023-05-07T20:01:16.210Z,13.77
2023-05-07T20:03:48.914Z,13.76
2023-05-07T20:06:23.443Z,13.78
2023-05-07T20:08:55.999Z,13.74
2023-05-07T20:11:28.721Z,13.68
2023-05-07T20:14:01.029Z,13.66
2023-05-07T20:16:33.728Z,13.68
2023-05-07T20:19:06.230Z,13.64
2023-05-07T20:21:38.698Z,13.63
2023-05-07T20:24:12.007Z,13.60
2023-05-07T20:26:44.600Z,13.58
2023-05-07T20:29:17.222Z,13.50
2023-05-07T20:31:49.560Z,13.54
2023-05-07T20:34:22.063Z,13.55
2023-05-07T20:36:54.828Z,13.43
2023-05-07T20:39:27.019Z,13.50
2023-05-07T20:41:59.770Z,13.47
2023-05-07T20:44:35.616Z,13.45
2023-05-07T20:47:08.015Z,13.41
2023-05-07T20:49:40.402Z,13.39
2023-05-07T20:52:12.529Z,13.35
2023-05-07T20:54:46.834Z,13.33
2023-05-07T20:57:19.575Z,13.28
2023-05-07T20:59:51.803Z,13.22
2023-05-07T21:02:24.154Z,13.23
2023-05-07T21:04:57.365Z,13.23
2023-05-07T21:07:30.524Z,13.22
2023-05-07T21:10:03.084Z,13.19
2023-05-07T21:12:35.143Z,13.19
2023-05-07T21:15:08.953Z,13.16
2023-05-07T21:17:41.419Z,13.15
2023-05-07T21:20:14.539Z,13.11
2023-05-07T21:22:46.871Z,13.09
2023-05-07T21:25:19.714Z,13.07
2023-05-07T21:27:53.258Z,13.04
2023-05-07T21:30:25.874Z,12.99
2023-05-07T21:32:58.284Z,12.88
2023-05-07T21:35:31.346Z,12.92
2023-05-07T21:38:03.847Z,12.79
2023-05-07T21:40:36.635Z,12.83
2023-05-07T21:43:08.989Z,12.78
2023-05-07T21:45:42.080Z,12.73
2023-05-07T21:48:18.231Z,12.71
2023-05-07T21:50:59.986Z,12.68
2023-05-07T21:53:32.828Z,12.63
2023-05-07T21:56:05.425Z,12.61
2023-05-07T21:58:37.734Z,12.58
2023-05-07T22:01:12.606Z,12.53
2023-05-07T22:03:45.118Z,12.47
2023-05-07T22:06:21.911Z,12.42
2023-05-07T22:08:54.696Z,12.37
2023-05-07T22:11:27.172Z,12.32
2023-05-07T22:13:59.529Z,12.25
2023-05-07T22:16:32.005Z,12.22
2023-05-07T22:19:04.357Z,12.17
2023-05-07T22:21:36.613Z,12.11
2023-05-07T22:24:10.162Z,12.08
2023-05-07T22:26:42.460Z,12.03
2023-05-07T22:29:14.926Z,12.00
2023-05-07T22:31:47.585Z,11.95
2023-05-07T22:34:20.193Z,11.92
2023-05-07T22:36:52.600Z,11.89
2023-05-07T22:39:25.254Z,11.83
2023-05-07T22:41:58.152Z,11.69
2023-05-07T22:44:30.791Z,11.73
2023-05-07T22:47:03.297Z,11.68
2023-05-07T22:49:36.762Z,11.64
2023-05-07T22:52:09.164Z,11.59
2023-05-07T22:54:41.335Z,11.57
2023-05-07T22:57:13.586Z,11.50
2023-05-07T22:59:45.722Z,11.46
2023-05-07T23:02:18.133Z,11.41
2023-05-07T23:04:50.393Z,11.35
2023-05-07T23:07:22.864Z,11.32
2023-05-07T23:09:55.518Z,11.29
2023-05-07T23:12:28.064Z,11.27
2023-05-07T23:15:00.598Z,11.24
2023-05-07T23:17:34.583Z,11.23
2023-05-07T23:20:07.965Z,11.23
2023-05-07T23:22:40.357Z,11.19
2023-05-07T23:25:13.037Z,11.15
2023-05-07T23:27:45.412Z,11.14
2023-05-07T23:30:18.157Z,11.09
2023-05-07T23:32:50.537Z,11.07
2023-05-07T23:35:23.252Z,11.02
2023-05-07T23:37:55.770Z,10.97
2023-05-07T23:40:28.501Z,10.94
2023-05-07T23:43:00.980Z,10.91
2023-05-07T23:45:33.444Z,10.88
2023-05-07T23:48:05.866Z,10.85
2023-05-07T23:50:38.482Z,10.83
2023-05-07T23:53:10.796Z,10.80
2023-05-07T23:55:43.359Z,10.73
2023-05-07T23:58:16.205Z,10.71
